Time;durP1;ratioP1;P1;durP2;ratioP2;P2;SDS_P1;SDS_P2;PMS_P1;PMS_P2;Temp;Humidity;BMP_temperature;BMP_pressure;BME280_temperature;BME280_humidity;BME280_pressure;Samples;Min_cycle;Max_cycle;Signal;HPM_P1;HPM_P2
2024/01/27 00:01:09;;;;;;;1999.90;999.90;;;;;;;1.66;61.26;96755.66;5116400;28;20101;-66
2024/01/27 00:03:36;;;;;;;1999.90;999.90;;;;;;;1.60;61.61;96743.63;5116378;28;20043;-64
2024/01/27 00:06:03;;;;;;;1999.90;999.90;;;;;;;1.61;61.53;96746.19;5116267;28;20131;-64
2024/01/27 00:08:30;;;;;;;1999.90;999.90;;;;;;;1.61;61.35;96742.75;5116321;28;20043;-68
2024/01/27 00:10:59;;;;;;;1999.90;999.90;;;;;;;1.62;61.08;96745.31;5116285;28;20082;-65
2024/01/27 00:13:26;;;;;;;1999.90;999.90;;;;;;;1.47;61.58;96742.72;5116164;28;20051;-68
2024/01/27 00:15:54;;;;;;;1999.90;999.90;;;;;;;1.40;62.01;96747.00;5116318;28;20130;-63
2024/01/27 00:18:21;;;;;;;1999.90;999.90;;;;;;;1.29;62.15;96746.97;5116095;28;20063;-65
2024/01/27 00:20:48;;;;;;;1999.90;999.90;;;;;;;1.15;62.50;96746.97;5115924;28;20047;-64
2024/01/27 00:23:15;;;;;;;1999.90;999.90;;;;;;;1.12;62.81;96763.25;5115939;28;20505;-65
2024/01/27 00:25:42;;;;;;;1999.90;999.90;;;;;;;1.14;62.71;96773.56;5116061;28;20040;-63
2024/01/27 00:28:11;;;;;;;1999.90;999.90;;;;;;;1.13;62.49;96767.59;5115439;28;20039;-65
2024/01/27 00:30:38;;;;;;;1999.90;999.90;;;;;;;1.10;62.77;96764.13;5115832;28;20444;-68
2024/01/27 00:33:06;;;;;;;1999.90;999.90;;;;;;;1.07;62.55;96769.25;5115802;28;20047;-66
2024/01/27 00:35:33;;;;;;;1999.90;999.90;;;;;;;1.03;62.50;96770.13;5115764;28;20081;-63
2024/01/27 00:38:00;;;;;;;1999.90;999.90;;;;;;;0.90;62.45;96770.06;5115713;28;20048;-67
2024/01/27 00:40:27;;;;;;;1999.90;999.90;;;;;;;0.75;63.00;96763.13;5115621;28;20043;-66
2024/01/27 00:42:55;;;;;;;1999.90;999.90;;;;;;;0.69;63.37;96768.28;5115532;28;20054;-67
2024/01/27 00:45:23;;;;;;;1999.90;999.90;;;;;;;0.61;63.24;96763.91;5115473;28;20048;-64
2024/01/27 00:47:51;;;;;;;1999.90;999.90;;;;;;;0.25;63.61;96761.13;5115488;28;20054;-67
2024/01/27 00:50:18;;;;;;;1999.90;999.90;;;;;;;0.13;64.43;96766.22;5115447;28;20134;-66
2024/01/27 00:52:45;;;;;;;1999.90;999.90;;;;;;;0.06;64.65;96761.88;5115146;28;20134;-64
2024/01/27 00:55:12;;;;;;;1999.90;999.90;;;;;;;-0.09;65.67;96762.63;5115311;28;20044;-66
2024/01/27 00:57:39;;;;;;;1999.90;999.90;;;;;;;-0.05;66.18;96759.22;5115366;28;20409;-67
2024/01/27 01:00:07;;;;;;;1999.90;999.90;;;;;;;-0.03;65.66;96753.22;5115197;28;20051;-68
2024/01/27 01:02:36;;;;;;;1999.90;999.90;;;;;;;-0.06;65.45;96747.22;5115240;28;20063;-65
2024/01/27 01:05:05;;;;;;;1999.90;999.90;;;;;;;-0.22;65.43;96741.06;5115095;28;20443;-67
2024/01/27 01:07:32;;;;;;;1999.90;999.90;;;;;;;-0.23;65.43;96734.22;5115153;28;20054;-64
2024/01/27 01:09:59;;;;;;;1999.90;999.90;;;;;;;-0.39;65.86;96729.81;5115035;28;20052;-65
2024/01/27 01:12:26;;;;;;;1999.90;999.90;;;;;;;-0.59;66.51;96729.63;5115020;28;20071;-68
2024/01/27 01:14:53;;;;;;;1999.90;999.90;;;;;;;-0.70;66.95;96724.41;5114969;28;20546;-65
2024/01/27 01:17:21;;;;;;;1999.90;999.90;;;;;;;-0.81;67.08;96718.28;5114884;28;20059;-68
2024/01/27 01:19:49;;;;;;;1999.90;999.90;;;;;;;-0.88;67.27;96713.94;5114915;28;20053;-67
2024/01/27 01:22:16;;;;;;;1999.90;999.90;;;;;;;-1.00;68.04;96707.81;5114759;28;20441;-67
2024/01/27 01:24:43;;;;;;;1999.90;999.90;;;;;;;-1.04;68.46;96706.94;5114786;28;20048;-64
2024/01/27 01:27:10;;;;;;;1999.90;999.90;;;;;;;-1.11;68.64;96714.56;5114698;28;20054;-66
2024/01/27 01:29:37;;;;;;;1999.90;999.90;;;;;;;-1.06;69.32;96713.75;5114626;28;20584;-64
2024/01/27 01:32:04;;;;;;;1999.90;999.90;;;;;;;-1.04;69.06;96706.06;5114565;28;20052;-64
2024/01/27 01:34:33;;;;;;;1999.90;999.90;;;;;;;-1.06;69.13;96708.63;5114548;28;20093;-63
2024/01/27 01:37:02;;;;;;;1999.90;999.90;;;;;;;-1.21;69.69;96704.19;5114639;28;20088;-64
2024/01/27 01:39:30;;;;;;;1999.90;999.90;;;;;;;-1.26;69.74;96705.84;5113959;28;20047;-65
2024/01/27 01:41:57;;;;;;;1999.90;999.90;;;;;;;-1.25;69.73;96709.25;5113960;28;20394;-66
2024/01/27 01:44:30;;;;;;;1999.90;999.90;;;;;;;-1.22;69.60;96704.16;5114399;28;20130;-68
2024/01/27 01:46:57;;;;;;;1999.90;999.90;;;;;;;-1.24;69.87;96706.72;5114321;28;20051;-65
2024/01/27 01:49:24;;;;;;;1999.90;999.90;;;;;;;-1.27;69.67;96707.53;5114452;28;20079;-65
2024/01/27 01:51:51;;;;;;;1999.90;999.90;;;;;;;-1.28;70.03;96713.53;5114321;28;20082;-65
2024/01/27 01:54:22;;;;;;;1999.90;999.90;;;;;;;-1.25;69.75;96711.81;5114119;28;20039;-65
2024/01/27 01:56:50;;;;;;;1999.90;999.90;;;;;;;-1.33;69.44;96712.59;5114132;28;20401;-67
2024/01/27 01:59:17;;;;;;;1999.90;999.90;;;;;;;-1.47;69.38;96704.75;5114145;28;20083;-67
2024/01/27 02:01:44;;;;;;;1999.90;999.90;;;;;;;-1.56;69.86;96705.47;5113980;28;20048;-68
2024/01/27 02:04:11;;;;;;;1999.90;999.90;;;;;;;-1.60;69.77;96695.16;5113919;28;20130;-66
2024/01/27 02:06:38;;;;;;;1999.90;999.90;;;;;;;-1.69;70.38;96694.19;5113943;28;20043;-66
2024/01/27 02:09:05;;;;;;;1999.90;999.90;;;;;;;-1.70;70.47;96694.19;5113928;28;20106;-68
2024/01/27 02:11:34;;;;;;;1999.90;999.90;;;;;;;-1.69;70.74;96680.50;5113865;28;20040;-66
2024/01/27 02:14:01;;;;;;;1999.90;999.90;;;;;;;-1.77;70.95;96677.84;5113829;28;20119;-68
2024/01/27 02:16:28;;;;;;;1999.90;999.90;;;;;;;-1.80;71.33;96685.50;5113915;28;20448;-64
2024/01/27 02:18:55;;;;;;;1999.90;999.90;;;;;;;-1.84;71.80;96687.16;5114021;28;20125;-68
2024/01/27 02:21:22;;;;;;;1999.90;999.90;;;;;;;-1.94;73.32;96686.19;5113822;28;20039;-62
2024/01/27 02:23:49;;;;;;;1999.90;999.90;;;;;;;-1.94;73.47;96675.94;5113760;28;20043;-65
2024/01/27 02:26:18;;;;;;;1999.90;999.90;;;;;;;-1.93;73.40;96672.50;5113685;28;20044;-65
2024/01/27 02:28:45;;;;;;;1999.90;999.90;;;;;;;-1.93;73.90;96654.56;5113659;28;20493;-68
2024/01/27 02:31:11;;;;;;;1999.90;999.90;;;;;;;-1.94;74.20;96657.97;5113637;28;20168;-65
2024/01/27 02:33:39;;;;;;;1999.90;999.90;;;;;;;-1.91;74.62;96670.84;5113604;28;20087;-64
2024/01/27 02:36:06;;;;;;;1999.90;999.90;;;;;;;-1.94;74.67;96685.31;5113594;28;20152;-63
2024/01/27 02:38:33;;;;;;;1999.90;999.90;;;;;;;-1.97;75.04;96685.25;5113503;28;20078;-65
2024/01/27 02:41:00;;;;;;;1999.90;999.90;;;;;;;-1.95;74.76;96693.84;5113600;28;20053;-64
2024/01/27 02:43:29;;;;;;;1999.90;999.90;;;;;;;-1.83;74.59;96703.41;5113495;28;20104;-66
2024/01/27 02:45:56;;;;;;;1999.90;999.90;;;;;;;-1.75;74.14;96701.81;5113472;28;20089;-64
2024/01/27 02:48:23;;;;;;;1999.90;999.90;;;;;;;-1.66;75.10;96701.94;5113407;28;20497;-64
2024/01/27 02:50:49;;;;;;;1999.90;999.90;;;;;;;-1.72;74.71;96691.59;5113562;28;20139;-65
2024/01/27 02:53:16;;;;;;;1999.90;999.90;;;;;;;-1.75;74.41;96686.41;5117513;28;20130;-65
2024/01/27 02:55:44;;;;;;;1999.90;999.90;;;;;;;-1.78;74.24;96683.81;5117745;28;20039;-64
2024/01/27 02:58:11;;;;;;;1999.90;999.90;;;;;;;-1.79;74.32;96685.53;5117627;28;20083;-66
2024/01/27 03:00:40;;;;;;;1999.90;999.90;;;;;;;-1.84;73.97;96689.72;5117604;28;20439;-64
2024/01/27 03:03:07;;;;;;;1999.90;999.90;;;;;;;-1.85;73.97;96695.69;5117422;28;20143;-64
2024/01/27 03:05:34;;;;;;;1999.90;999.90;;;;;;;-1.81;74.19;96694.03;5117486;28;20554;-66
2024/01/27 03:08:01;;;;;;;1999.90;999.90;;;;;;;-1.78;74.08;96692.38;5117489;28;20044;-65
2024/01/27 03:10:29;;;;;;;1999.90;999.90;;;;;;;-1.75;74.48;96699.25;5117367;28;20075;-64
2024/01/27 03:12:56;;;;;;;1999.90;999.90;;;;;;;-1.74;74.55;96684.72;5117400;28;20542;-66
2024/01/27 03:15:23;;;;;;;1999.90;999.90;;;;;;;-1.76;74.32;96688.97;5117295;28;20050;-65
2024/01/27 03:17:51;;;;;;;1999.90;999.90;;;;;;;-1.73;74.24;96682.19;5117224;28;20130;-68
2024/01/27 03:20:18;;;;;;;1999.90;999.90;;;;;;;-1.79;74.05;96674.41;5117220;28;20048;-66
2024/01/27 03:22:45;;;;;;;1999.90;999.90;;;;;;;-1.97;75.04;96670.75;5117168;28;20044;-66
2024/01/27 03:25:12;;;;;;;1999.90;999.90;;;;;;;-2.02;75.64;96667.25;5117106;28;20039;-65
2024/01/27 03:27:39;;;;;;;1999.90;999.90;;;;;;;-2.07;76.52;96668.91;5117082;28;20051;-68
2024/01/27 03:30:08;;;;;;;1999.90;999.90;;;;;;;-2.12;77.14;96671.41;5117274;28;20113;-67
2024/01/27 03:32:35;;;;;;;1999.90;999.90;;;;;;;-2.15;77.34;96666.22;5117100;28;20043;-65
2024/01/27 03:35:05;;;;;;;1999.90;999.90;;;;;;;-2.09;77.79;96657.75;5117117;28;20397;-64
2024/01/27 03:37:32;;;;;;;1999.90;999.90;;;;;;;-2.01;77.51;96663.88;5116985;28;20048;-64
2024/01/27 03:39:59;;;;;;;1999.90;999.90;;;;;;;-1.91;77.54;96662.28;5116867;28;20047;-67
2024/01/27 03:42:26;;;;;;;1999.90;999.90;;;;;;;-1.81;76.93;96655.53;5116619;28;20044;-67
2024/01/27 03:44:53;;;;;;;1999.90;999.90;;;;;;;-1.75;76.80;96641.97;5116767;28;20394;-67
2024/01/27 03:47:20;;;;;;;1999.90;999.90;;;;;;;-1.70;76.35;96637.72;5116787;28;20043;-64
2024/01/27 03:49:47;;;;;;;1999.90;999.90;;;;;;;-1.71;76.38;96636.03;5116670;28;20055;-64
2024/01/27 03:52:16;;;;;;;1999.90;999.90;;;;;;;-1.67;76.20;96624.94;5116585;28;20520;-65
2024/01/27 03:54:43;;;;;;;1999.90;999.90;;;;;;;-1.66;75.75;96632.66;5098427;28;20055;-64
2024/01/27 03:57:10;;;;;;;1999.90;999.90;;;;;;;-1.62;75.71;96619.88;5116462;28;20050;-67
2024/01/27 03:59:37;;;;;;;1999.90;999.90;;;;;;;-1.60;75.29;96637.00;5116416;28;20056;-66
2024/01/27 04:02:04;;;;;;;1999.90;999.90;;;;;;;-1.69;75.42;96642.88;5116308;28;20550;-65
2024/01/27 04:04:31;;;;;;;1999.90;999.90;;;;;;;-1.60;76.17;96654.97;5115395;28;20055;-65
2024/01/27 04:06:58;;;;;;;1999.90;999.90;;;;;;;-1.56;76.02;96649.00;5116209;28;20485;-65
2024/01/27 04:09:26;;;;;;;1999.90;999.90;;;;;;;-1.59;76.00;96643.88;5116244;28;20058;-67
2024/01/27 04:11:54;;;;;;;1999.90;999.90;;;;;;;-1.56;76.18;96649.00;5116259;28;20043;-64
2024/01/27 04:14:21;;;;;;;1999.90;999.90;;;;;;;-1.46;76.01;96644.00;5116175;28;20058;-63
2024/01/27 04:16:48;;;;;;;1999.90;999.90;;;;;;;-1.51;75.81;96638.81;5116151;28;20501;-67
2024/01/27 04:19:15;;;;;;;1999.90;999.90;;;;;;;-1.49;75.92;96637.13;5116037;28;20405;-63
2024/01/27 04:21:42;;;;;;;1999.90;999.90;;;;;;;-1.50;76.05;96640.56;5116183;28;20047;-66
2024/01/27 04:24:09;;;;;;;1999.90;999.90;;;;;;;-1.47;76.22;96637.16;5116076;28;20066;-66
2024/01/27 04:26:38;;;;;;;1999.90;999.90;;;;;;;-1.42;75.99;96628.66;5115928;28;20048;-65
2024/01/27 04:29:05;;;;;;;1999.90;999.90;;;;;;;-1.40;75.63;96629.53;5115876;28;20075;-67
2024/01/27 04:31:32;;;;;;;1999.90;999.90;;;;;;;-1.54;75.70;96628.50;5115703;28;20440;-67
2024/01/27 04:34:00;;;;;;;1999.90;999.90;;;;;;;-1.48;76.16;96620.88;5115751;28;20050;-67
2024/01/27 04:36:28;;;;;;;1999.90;999.90;;;;;;;-1.47;76.06;96616.63;5115793;28;20048;-65
2024/01/27 04:38:55;;;;;;;1999.90;999.90;;;;;;;-1.44;76.04;96617.50;5115680;28;20039;-68
2024/01/27 04:41:22;;;;;;;1999.90;999.90;;;;;;;-1.40;75.69;96610.69;5115812;28;20074;-66
2024/01/27 04:43:52;;;;;;;1999.90;999.90;;;;;;;-1.50;75.62;96601.19;5115421;28;20073;-67
2024/01/27 04:46:20;;;;;;;;;;;;;;;-1.44;76.03;96591.84;5116025;28;20047;-65
2024/01/27 04:48:47;;;;;;;1999.90;999.90;;;;;;;-1.41;76.07;96580.75;5115596;28;19972;-67
2024/01/27 04:51:14;;;;;;;1999.90;999.90;;;;;;;-1.47;76.24;96575.56;5115552;28;20124;-68
2024/01/27 04:53:41;;;;;;;1999.90;999.90;;;;;;;-1.54;76.95;96580.63;5115249;28;20046;-67
2024/01/27 04:56:09;;;;;;;1999.90;999.90;;;;;;;-1.57;77.48;96583.16;5115381;28;20043;-63
2024/01/27 04:58:36;;;;;;;1999.90;999.90;;;;;;;-1.55;77.59;96584.03;5115653;28;20069;-65
2024/01/27 05:01:06;;;;;;;1999.90;999.90;;;;;;;-1.48;77.82;96578.97;5115264;28;20442;-64
2024/01/27 05:03:33;;;;;;;1999.90;999.90;;;;;;;-1.42;77.29;96577.31;5115362;28;20051;-67
2024/01/27 05:06:01;;;;;;;1999.90;999.90;;;;;;;-1.33;76.86;96580.84;5115105;28;20046;-64
2024/01/27 05:08:28;;;;;;;1999.90;999.90;;;;;;;-1.27;76.49;96588.56;5115151;28;20086;-67
2024/01/27 05:10:55;;;;;;;1999.90;999.90;;;;;;;-1.22;76.87;96597.19;5115066;28;20048;-67
2024/01/27 05:13:22;;;;;;;1999.90;999.90;;;;;;;-1.15;77.15;96604.09;5115000;28;20048;-67
2024/01/27 05:15:49;;;;;;;1999.90;999.90;;;;;;;-1.07;77.14;96605.88;5115009;28;20048;-64
2024/01/27 05:18:18;;;;;;;1999.90;999.90;;;;;;;-1.01;76.63;96611.06;5114868;28;20116;-66
2024/01/27 05:20:45;;;;;;;1999.90;999.90;;;;;;;-0.94;76.22;96614.53;5114803;28;20481;-66
2024/01/27 05:23:11;;;;;;;1999.90;999.90;;;;;;;-0.93;75.93;96608.59;5114757;28;20048;-65
2024/01/27 05:25:38;;;;;;;1999.90;999.90;;;;;;;-0.94;75.72;96615.41;5114699;28;20050;-66
2024/01/27 05:28:06;;;;;;;1999.90;999.90;;;;;;;-1.02;75.67;96617.91;5114764;28;20057;-67
2024/01/27 05:30:33;;;;;;;1999.90;999.90;;;;;;;-0.96;76.14;96619.66;5114662;28;20051;-65
2024/01/27 05:33:01;;;;;;;1999.90;999.90;;;;;;;-0.97;76.18;96622.25;5114490;28;20439;-68
2024/01/27 05:35:29;;;;;;;1999.90;999.90;;;;;;;-0.97;77.00;96624.81;5114884;28;20165;-64
2024/01/27 05:37:57;;;;;;;1999.90;999.90;;;;;;;-0.91;76.75;96623.16;5114551;28;20052;-66
2024/01/27 05:40:24;;;;;;;1999.90;999.90;;;;;;;-0.93;76.97;96624.00;5114504;28;20044;-66
2024/01/27 05:42:51;;;;;;;1999.90;999.90;;;;;;;-0.89;76.51;96618.03;5114293;28;20443;-67
2024/01/27 05:45:19;;;;;;;1999.90;999.90;;;;;;;-0.83;76.75;96618.09;5114444;28;20142;-67
2024/01/27 05:47:46;;;;;;;1999.90;999.90;;;;;;;-0.74;75.82;96624.13;5114535;28;20051;-66
2024/01/27 05:50:13;;;;;;;1999.90;999.90;;;;;;;-0.73;75.84;96618.16;5114346;28;20096;-65
2024/01/27 05:52:41;;;;;;;1999.90;999.90;;;;;;;-0.77;76.25;96625.84;5113954;28;20421;-68
2024/01/27 05:55:08;;;;;;;1999.90;999.90;;;;;;;-0.67;75.80;96631.03;5114228;28;20069;-68
2024/01/27 05:57:35;;;;;;;1999.90;999.90;;;;;;;-0.60;75.98;96625.09;5114042;28;20405;-63
2024/01/27 06:00:02;;;;;;;1999.90;999.90;;;;;;;-0.55;75.52;96628.56;5114130;28;20043;-67
2024/01/27 06:02:29;;;;;;;1999.90;999.90;;;;;;;-0.47;75.96;96631.22;5114091;28;20401;-67
2024/01/27 06:05:11;;;;;;;1999.90;999.90;;;;;;;-0.43;75.69;96634.66;5114212;28;20143;-65
2024/01/27 06:07:42;;;;;;;1999.90;999.90;;;;;;;-0.43;75.38;96629.50;5113902;28;20477;-64
2024/01/27 06:10:10;;;;;;;1999.90;999.90;;;;;;;-0.41;75.26;96643.25;5113910;28;20099;-62
2024/01/27 06:12:39;;;;;;;1999.90;999.90;;;;;;;-0.41;74.94;96645.81;5113928;28;20043;-64
2024/01/27 06:15:08;;;;;;;1999.90;999.90;;;;;;;-0.29;74.60;96655.31;5113877;28;20051;-64
2024/01/27 06:17:35;;;;;;;1999.90;999.90;;;;;;;-0.26;75.15;96661.34;5113846;28;20089;-67
2024/01/27 06:20:03;;;;;;;1999.90;999.90;;;;;;;-0.16;74.97;96656.25;5113761;28;20383;-68
2024/01/27 06:22:32;;;;;;;1999.90;999.90;;;;;;;-0.08;75.14;96656.31;5113783;28;20044;-65
2024/01/27 06:25:01;;;;;;;1999.90;999.90;;;;;;;-0.03;75.16;96652.91;5113692;28;20135;-65
2024/01/27 06:27:28;;;;;;;1999.90;999.90;;;;;;;0.02;74.64;96645.22;5113285;28;20131;-64
2024/01/27 06:29:55;;;;;;;1999.90;999.90;;;;;;;0.08;74.13;96627.25;5113612;28;20052;-66
2024/01/27 06:32:22;;;;;;;1999.90;999.90;;;;;;;0.14;73.16;96633.25;5113530;28;20554;-65
2024/01/27 06:34:50;;;;;;;1999.90;999.90;;;;;;;0.16;74.28;96618.69;5113598;28;20043;-66
2024/01/27 06:37:18;;;;;;;1999.90;999.90;;;;;;;0.25;73.84;96617.00;5113589;28;20071;-66
2024/01/27 06:39:46;;;;;;;1999.90;999.90;;;;;;;0.34;74.11;96617.94;5113633;28;20057;-64
2024/01/27 06:42:17;;;;;;;1999.90;999.90;;;;;;;0.39;73.95;96615.38;5113736;28;20043;-65
2024/01/27 06:44:46;;;;;;;1999.90;999.90;;;;;;;0.39;74.19;96611.06;5113437;28;20083;-63
2024/01/27 06:47:14;;;;;;;1999.90;999.90;;;;;;;0.36;74.40;96613.66;5113515;28;20043;-64
2024/01/27 06:49:41;;;;;;;1999.90;999.90;;;;;;;0.45;74.58;96610.25;5113414;28;20518;-65
2024/01/27 06:52:09;;;;;;;1999.90;999.90;;;;;;;0.50;73.97;96604.25;5113462;28;20089;-66
2024/01/27 06:54:41;;;;;;;1999.90;999.90;;;;;;;0.55;74.53;96604.28;5113226;28;20572;-65
2024/01/27 06:57:18;;;;;;;1999.90;999.90;;;;;;;0.58;74.80;96601.72;5113389;28;20052;-65
2024/01/27 06:59:51;;;;;;;1999.90;999.90;;;;;;;0.68;74.41;96600.00;5113278;28;20131;-63
2024/01/27 07:02:20;;;;;;;1999.90;999.90;;;;;;;0.82;73.28;96612.06;5113288;28;20546;-66
2024/01/27 07:04:47;;;;;;;1999.90;999.90;;;;;;;0.91;72.68;96621.50;5113165;28;20054;-63
2024/01/27 07:07:14;;;;;;;1999.90;999.90;;;;;;;1.03;72.63;96615.50;5113226;28;20086;-68
2024/01/27 07:09:41;;;;;;;1999.90;999.90;;;;;;;1.12;73.06;96608.63;5113302;28;20054;-67
2024/01/27 07:12:09;;;;;;;1999.90;999.90;;;;;;;1.18;72.47;96606.94;5113186;28;20040;-65
2024/01/27 07:14:37;;;;;;;1999.90;999.90;;;;;;;1.23;71.37;96616.38;5113139;28;20048;-67
2024/01/27 07:17:07;;;;;;;1999.90;999.90;;;;;;;1.36;69.11;96618.97;5113125;28;20130;-66
2024/01/27 07:19:34;;;;;;;1999.90;999.90;;;;;;;1.37;69.07;96608.66;5113141;28;20052;-64
2024/01/27 07:22:03;;;;;;;1999.90;999.90;;;;;;;1.40;69.67;96594.91;5113259;28;20054;-67
2024/01/27 07:24:30;;;;;;;1999.90;999.90;;;;;;;1.46;70.86;96592.31;5113090;28;20482;-64
2024/01/27 07:26:58;;;;;;;1999.90;999.90;;;;;;;1.53;70.68;96589.75;5113172;28;20043;-68
2024/01/27 07:29:25;;;;;;;1999.90;999.90;;;;;;;1.54;71.10;96596.63;5112993;28;20162;-65
2024/01/27 07:31:52;;;;;;;1999.90;999.90;;;;;;;1.56;70.89;96598.31;5113005;28;20124;-65
2024/01/27 07:34:21;;;;;;;1999.90;999.90;;;;;;;1.64;70.69;96593.16;5113005;28;20040;-65
2024/01/27 07:36:49;;;;;;;1999.90;999.90;;;;;;;1.66;70.24;96596.59;5113053;28;20047;-68
2024/01/27 07:39:17;;;;;;;1999.90;999.90;;;;;;;1.69;69.51;96588.00;5115592;28;20082;-65
2024/01/27 07:41:45;;;;;;;1999.90;999.90;;;;;;;1.79;69.74;96586.25;5117106;28;20051;-68
2024/01/27 07:44:14;;;;;;;1999.90;999.90;;;;;;;1.83;69.54;96585.38;5116710;28;20146;-66
2024/01/27 07:46:43;;;;;;;1999.90;999.90;;;;;;;1.88;69.87;96587.09;5116873;28;20044;-67
2024/01/27 07:49:12;;;;;;;1999.90;999.90;;;;;;;1.94;69.71;96586.22;5116673;28;20504;-65
2024/01/27 07:51:41;;;;;;;1999.90;999.90;;;;;;;1.98;69.14;96585.34;5116938;28;20050;-65
2024/01/27 07:54:08;;;;;;;1999.90;999.90;;;;;;;2.06;68.85;96577.56;5116388;28;20052;-66
2024/01/27 07:56:35;;;;;;;1999.90;999.90;;;;;;;2.13;67.95;96587.00;5116915;28;20058;-67
2024/01/27 07:59:03;;;;;;;1999.90;999.90;;;;;;;2.21;68.47;96578.38;5116733;28;20039;-65
2024/01/27 08:01:31;;;;;;;1999.90;999.90;;;;;;;2.25;69.85;96568.03;5116522;28;20130;-67
2024/01/27 08:03:58;;;;;;;1999.90;999.90;;;;;;;2.20;69.45;96576.66;5116351;28;20051;-65
2024/01/27 08:06:29;;;;;;;1999.90;999.90;;;;;;;2.23;69.58;96574.06;5116396;28;20039;-66
2024/01/27 08:08:59;;;;;;;1999.90;999.90;;;;;;;2.35;69.65;96573.16;5116406;28;20048;-67
2024/01/27 08:11:26;;;;;;;1999.90;999.90;;;;;;;2.39;70.13;96569.69;5116214;28;20056;-68
2024/01/27 08:13:54;;;;;;;1999.90;999.90;;;;;;;2.47;70.48;96564.50;5116331;28;20044;-67
2024/01/27 08:16:21;;;;;;;1999.90;999.90;;;;;;;2.53;70.67;96554.97;5116077;28;20047;-64
2024/01/27 08:18:51;;;;;;;1999.90;999.90;;;;;;;2.61;70.72;96565.25;5116301;28;20043;-66
2024/01/27 08:21:22;;;;;;;1999.90;999.90;;;;;;;2.70;70.55;96566.06;5116332;28;20083;-67
2024/01/27 08:23:50;;;;;;;1999.90;999.90;;;;;;;2.72;70.63;96575.53;5115941;28;20489;-65
2024/01/27 08:26:20;;;;;;;1999.90;999.90;;;;;;;2.78;71.03;96588.44;5116264;28;20070;-69
2024/01/27 08:28:48;;;;;;;1999.90;999.90;;;;;;;2.80;70.68;96587.56;5115842;28;20051;-67
2024/01/27 08:31:16;;;;;;;1999.90;999.90;;;;;;;2.82;70.60;96591.84;5115946;28;20043;-63
2024/01/27 08:33:43;;;;;;;1999.90;999.90;;;;;;;2.87;69.71;96594.38;5115768;28;20054;-66
2024/01/27 08:36:15;;;;;;;1999.90;999.90;;;;;;;2.83;68.27;96583.19;5115877;28;20129;-64
2024/01/27 08:38:42;;;;;;;1999.90;999.90;;;;;;;2.82;67.05;96580.63;5115748;28;20043;-64
2024/01/27 08:41:10;;;;;;;1999.90;999.90;;;;;;;2.84;66.43;96573.72;5116055;28;20047;-67
2024/01/27 08:43:39;;;;;;;1999.90;999.90;;;;;;;2.91;65.42;96583.16;5115661;28;20494;-64
2024/01/27 08:46:07;;;;;;;1999.90;999.90;;;;;;;3.02;65.03;96588.25;5115752;28;20477;-66
2024/01/27 08:48:34;;;;;;;1999.90;999.90;;;;;;;3.09;64.17;96597.69;5097713;28;20075;-65
2024/01/27 08:51:02;;;;;;;1999.90;999.90;;;;;;;3.17;63.46;96595.03;5115202;28;20109;-65
2024/01/27 08:53:31;;;;;;;1999.90;999.90;;;;;;;3.25;62.50;96606.16;5115209;28;20047;-67
2024/01/27 08:55:58;;;;;;;1999.90;999.90;;;;;;;3.36;62.98;96605.22;5115405;28;20555;-66
2024/01/27 08:58:31;;;;;;;1999.90;999.90;;;;;;;3.43;61.02;96612.06;5115351;28;20043;-66
2024/01/27 09:01:08;;;;;;;1999.90;999.90;;;;;;;3.51;58.95;96618.03;5115358;28;20048;-63
2024/01/27 09:03:36;;;;;;;1999.90;999.90;;;;;;;3.59;59.92;96617.97;5115133;28;20052;-68
2024/01/27 09:06:04;;;;;;;1999.90;999.90;;;;;;;3.66;60.56;96616.19;5115377;28;20570;-65
2024/01/27 09:08:32;;;;;;;1999.90;999.90;;;;;;;3.72;59.75;96610.97;5115182;28;20044;-68
2024/01/27 09:10:59;;;;;;;1999.90;999.90;;;;;;;3.79;59.53;96610.03;5115392;28;20558;-64
2024/01/27 09:13:26;;;;;;;1999.90;999.90;;;;;;;3.85;59.47;96609.09;5115030;28;20126;-65
2024/01/27 09:15:56;;;;;;;1999.90;999.90;;;;;;;3.89;58.65;96612.53;5115030;28;20097;-64
2024/01/27 09:18:26;;;;;;;1999.90;999.90;;;;;;;3.87;60.11;96603.91;5114986;28;20056;-65
2024/01/27 09:20:53;;;;;;;1999.90;999.90;;;;;;;3.81;59.81;96594.47;5114967;28;20083;-63
2024/01/27 09:23:20;;;;;;;1999.90;999.90;;;;;;;3.78;59.37;96600.56;5114905;28;20276;-66
2024/01/27 09:25:48;;;;;;;1999.90;999.90;;;;;;;3.78;60.10;96600.56;5114722;28;20044;-68
2024/01/27 09:28:15;;;;;;;1999.90;999.90;;;;;;;3.86;61.41;96582.34;5114940;28;20047;-65
2024/01/27 09:30:43;;;;;;;1999.90;999.90;;;;;;;3.87;60.52;96590.97;5114764;28;20044;-65
2024/01/27 09:33:11;;;;;;;1999.90;999.90;;;;;;;3.95;60.27;96584.00;5114734;28;20051;-66
2024/01/27 09:35:40;;;;;;;1999.90;999.90;;;;;;;4.04;61.27;96583.03;5114600;28;20083;-67
2024/01/27 09:38:09;;;;;;;1999.90;999.90;;;;;;;4.17;62.05;96597.56;5114615;28;20083;-65
2024/01/27 09:40:37;;;;;;;1999.90;999.90;;;;;;;4.29;61.74;96588.78;5114513;28;20103;-68
2024/01/27 09:43:04;;;;;;;1999.90;999.90;;;;;;;4.41;61.90;96587.78;5114395;28;20058;-66
2024/01/27 09:45:32;;;;;;;1999.90;999.90;;;;;;;4.52;61.16;96589.38;5114243;28;20048;-69
2024/01/27 09:48:02;;;;;;;1999.90;999.90;;;;;;;4.58;61.59;96586.69;5114347;28;20416;-67
2024/01/27 09:50:29;;;;;;;1999.90;999.90;;;;;;;4.62;61.60;96592.69;5114469;28;20404;-65
2024/01/27 09:52:59;;;;;;;1999.90;999.90;;;;;;;4.71;61.59;96595.16;5114051;28;20079;-66
2024/01/27 09:55:27;;;;;;;1999.90;999.90;;;;;;;4.79;61.57;96598.47;5114186;28;20116;-66
2024/01/27 09:57:54;;;;;;;1999.90;999.90;;;;;;;4.84;63.41;96595.00;5114155;28;20044;-66
2024/01/27 10:00:23;;;;;;;1999.90;999.90;;;;;;;4.83;64.89;96590.66;5113924;28;20043;-67
2024/01/27 10:02:50;;;;;;;1999.90;999.90;;;;;;;4.80;65.87;96579.47;5113743;28;20497;-67
2024/01/27 10:05:19;;;;;;;1999.90;999.90;;;;;;;4.81;67.59;96575.13;5114205;28;20047;-67
2024/01/27 10:07:46;;;;;;;1999.90;999.90;;;;;;;4.85;67.95;96566.44;5113922;28;20462;-66
2024/01/27 10:10:15;;;;;;;1999.90;999.90;;;;;;;5.01;68.99;96561.03;5113918;28;20086;-67
2024/01/27 10:12:43;;;;;;;1999.90;999.90;;;;;;;4.96;69.19;96561.09;5095987;28;20047;-65
2024/01/27 10:15:21;;;;;;;1999.90;999.90;;;;;;;4.99;69.23;96563.63;5113828;28;20039;-65
2024/01/27 10:18:07;;;;;;;1999.90;999.90;;;;;;;5.04;69.78;96569.63;5113840;28;20123;-68
2024/01/27 10:20:35;;;;;;;1999.90;999.90;;;;;;;5.11;69.54;96559.13;5113974;28;20088;-63
2024/01/27 10:23:12;;;;;;;1999.90;999.90;;;;;;;5.09;69.58;96564.34;5113785;28;20043;-67
2024/01/27 10:29:06;;;;;;;1999.90;999.90;;;;;;;4.89;68.26;96573.31;5113787;28;20085;-63
2024/01/27 10:31:35;;;;;;;1999.90;999.90;;;;;;;4.83;67.31;96563.00;5113478;28;20089;-68
2024/01/27 10:34:09;;;;;;;1999.90;999.90;;;;;;;4.90;67.39;96564.63;5113573;28;20044;-66
2024/01/27 10:36:44;;;;;;;1999.90;999.90;;;;;;;4.88;67.81;96560.34;5113662;28;20062;-67
2024/01/27 10:39:20;;;;;;;1999.90;999.90;;;;;;;4.98;67.22;96555.88;5113433;28;20435;-66
2024/01/27 10:41:49;;;;;;;1999.90;999.90;;;;;;;5.02;65.22;96554.94;5113484;28;20101;-65
2024/01/27 10:44:19;;;;;;;1999.90;999.90;;;;;;;5.17;64.43;96564.22;5113619;28;20518;-63
2024/01/27 10:46:48;;;;;;;1999.90;999.90;;;;;;;5.31;63.55;96572.66;5113488;28;20044;-66
2024/01/27 10:49:19;;;;;;;1999.90;999.90;;;;;;;5.43;62.05;96556.03;5113260;28;20464;-65
2024/01/27 10:51:51;;;;;;;1999.90;999.90;;;;;;;5.50;61.89;96554.16;5113430;28;20057;-67
2024/01/27 10:54:25;;;;;;;1999.90;999.90;;;;;;;5.54;62.02;96547.19;5113346;28;20488;-68
2024/01/27 10:56:54;;;;;;;1999.90;999.90;;;;;;;5.55;62.19;96552.38;5113552;28;20405;-66
2024/01/27 10:59:27;;;;;;;1999.90;999.90;;;;;;;5.65;62.16;96550.44;5113582;28;20076;-66
2024/01/27 11:01:57;;;;;;;1999.90;999.90;;;;;;;5.67;62.32;96553.88;5113353;28;20101;-65
2024/01/27 11:04:26;;;;;;;1999.90;999.90;;;;;;;5.74;63.14;96557.22;5113357;28;20120;-68